createdAt,value
2018-04-19T00:01:24.296Z,9.97
2018-04-19T00:03:54.582Z,9.43
2018-04-19T00:06:24.660Z,9.40
2018-04-19T00:08:54.230Z,9.83
2018-04-19T00:11:23.153Z,9.23
2018-04-19T00:13:53.413Z,9.53
2018-04-19T00:16:23.774Z,9.47
2018-04-19T00:18:53.621Z,9.27
2018-04-19T00:21:22.552Z,10.10
2018-04-19T00:23:52.822Z,9.50
2018-04-19T00:26:21.528Z,8.73
2018-04-19T00:28:51.827Z,9.53
2018-04-19T00:31:20.622Z,10.20
2018-04-19T00:33:50.672Z,9.60
2018-04-19T00:36:20.348Z,9.67
2018-04-19T00:38:50.062Z,10.17
2018-04-19T00:41:20.131Z,9.90
2018-04-19T00:43:49.437Z,10.10
2018-04-19T00:46:19.505Z,9.83
2018-04-19T00:48:48.434Z,10.83
2018-04-19T00:51:17.367Z,11.20
2018-04-19T00:53:47.061Z,11.83
2018-04-19T00:56:15.989Z,10.20
2018-04-19T00:58:46.247Z,11.13
2018-04-19T01:01:14.971Z,12.43
2018-04-19T01:03:44.661Z,10.53
2018-04-19T01:06:14.945Z,10.80
2018-04-19T01:08:45.020Z,10.70
2018-04-19T01:11:15.066Z,9.80
2018-04-19T01:13:44.530Z,11.33
2018-04-19T01:16:14.821Z,11.17
2018-04-19T01:18:43.533Z,10.70
2018-04-19T01:21:12.461Z,11.30
2018-04-19T01:23:41.379Z,11.30
2018-04-19T01:26:29.177Z,10.93
2018-04-19T01:28:58.085Z,10.77
2018-04-19T01:31:27.013Z,10.60
2018-04-19T01:33:57.476Z,10.20
2018-04-19T01:36:27.175Z,9.80
2018-04-19T01:38:56.487Z,10.70
2018-04-19T01:41:25.403Z,11.53
2018-04-19T01:43:55.467Z,9.90
2018-04-19T01:46:24.380Z,11.33
2018-04-19T01:48:54.813Z,10.20
2018-04-19T01:51:25.065Z,10.20
2018-04-19T01:53:55.343Z,11.10
2018-04-19T01:56:25.388Z,10.57
2018-04-19T01:58:54.515Z,10.70
2018-04-19T02:01:23.441Z,9.70
2018-04-19T02:03:53.727Z,10.10
2018-04-19T02:06:23.809Z,9.90
2018-04-19T02:08:53.651Z,11.73
2018-04-19T02:11:22.573Z,10.20
2018-04-19T02:13:52.705Z,10.13
2018-04-19T02:16:22.367Z,10.50
2018-04-19T02:18:51.305Z,11.17
2018-04-19T02:21:20.627Z,11.60
2018-04-19T02:23:50.907Z,10.37
2018-04-19T02:26:20.375Z,10.50
2018-04-19T02:28:50.070Z,11.30
2018-04-19T02:31:18.997Z,10.57
2018-04-19T02:33:49.284Z,11.17
2018-04-19T02:36:18.007Z,11.80
2018-04-19T02:38:48.435Z,10.50
2018-04-19T02:41:17.745Z,10.97
2018-04-19T02:43:47.432Z,10.80
2018-04-19T02:46:16.372Z,9.53
2018-04-19T02:48:45.292Z,10.07
2018-04-19T02:51:15.572Z,10.40
2018-04-19T02:53:45.076Z,10.80
2018-04-19T02:56:14.427Z,11.23
2018-04-19T02:58:43.350Z,10.30
2018-04-19T03:01:13.028Z,9.53
2018-04-19T03:03:43.307Z,10.17
2018-04-19T03:06:12.035Z,11.80
2018-04-19T03:08:41.672Z,10.90
2018-04-19T03:11:11.372Z,11.03
2018-04-19T03:13:41.431Z,10.30
2018-04-19T03:16:11.282Z,9.50
2018-04-19T03:18:40.196Z,10.60
2018-04-19T03:21:09.112Z,10.33
2018-04-19T03:23:38.814Z,11.50
2018-04-19T03:26:08.502Z,11.37
2018-04-19T03:28:37.451Z,11.00
2018-04-19T03:31:07.717Z,11.77
2018-04-19T03:33:36.457Z,11.23
2018-04-19T03:36:05.777Z,12.70
2018-04-19T03:38:35.106Z,11.23
2018-04-19T03:41:05.076Z,11.23
2018-04-19T03:43:35.137Z,12.90
2018-04-19T03:46:04.468Z,11.73
2018-04-19T03:48:33.402Z,12.33
2018-04-19T03:51:03.082Z,12.77
2018-04-19T03:53:32.402Z,12.97
2018-04-19T03:56:01.340Z,11.77
2018-04-19T03:58:31.014Z,13.13
2018-04-19T04:01:01.104Z,13.50
2018-04-19T04:03:30.439Z,12.73
2018-04-19T04:06:00.589Z,14.03
2018-04-19T04:08:29.916Z,15.50
2018-04-19T04:10:58.833Z,12.83
2018-04-19T04:13:29.124Z,12.20
2018-04-19T04:15:59.178Z,12.40
2018-04-19T04:18:40.144Z,14.00
2018-04-19T04:21:17.898Z,13.37
2018-04-19T04:23:52.636Z,12.77
2018-04-19T04:26:21.539Z,15.43
2018-04-19T04:28:50.471Z,13.33
2018-04-19T04:31:19.540Z,13.57
2018-04-19T04:33:50.848Z,14.60
2018-04-19T04:36:21.131Z,13.57
2018-04-19T04:38:50.289Z,14.30
2018-04-19T04:41:19.227Z,12.90
2018-04-19T04:43:49.491Z,13.77
2018-04-19T04:46:18.207Z,14.00
2018-04-19T04:48:47.136Z,13.80
2018-04-19T04:51:16.806Z,15.40
2018-04-19T04:53:45.952Z,13.90
2018-04-19T04:56:16.368Z,13.50
2018-04-19T04:58:46.649Z,13.90
2018-04-19T05:01:15.375Z,14.80
2018-04-19T05:03:45.652Z,15.67
2018-04-19T05:06:14.388Z,14.43
2018-04-19T05:08:44.655Z,15.73
2018-04-19T05:11:13.377Z,14.87
2018-04-19T05:13:43.637Z,14.43
2018-04-19T05:16:12.366Z,14.30
2018-04-19T05:18:42.800Z,13.30
2018-04-19T05:21:11.732Z,14.50
2018-04-19T05:23:41.060Z,14.80
2018-04-19T05:26:11.343Z,13.33
2018-04-19T05:28:41.408Z,14.80
2018-04-19T05:31:10.955Z,15.93
2018-04-19T05:33:40.648Z,15.70
2018-04-19T05:36:09.571Z,13.70
2018-04-19T05:38:38.501Z,14.90
2018-04-19T05:41:09.225Z,14.37
2018-04-19T05:43:38.719Z,14.90
2018-04-19T05:46:08.049Z,14.17
2018-04-19T05:48:36.974Z,15.77
2018-04-19T05:51:06.687Z,15.90
2018-04-19T05:53:36.958Z,15.43
2018-04-19T05:56:05.792Z,17.20
2018-04-19T05:58:34.699Z,15.53
2018-04-19T06:01:04.998Z,14.70
2018-04-19T06:03:34.468Z,17.43
2018-04-19T06:06:03.377Z,16.27
2018-04-19T06:08:32.299Z,15.63
2018-04-19T06:11:02.569Z,15.87
2018-04-19T06:13:31.296Z,17.20
2018-04-19T06:16:01.720Z,16.17
2018-04-19T06:18:31.072Z,17.10
2018-04-19T06:21:00.762Z,16.00
2018-04-19T06:23:29.692Z,17.97
2018-04-19T06:25:59.020Z,16.70
2018-04-19T06:28:29.306Z,16.80
2018-04-19T06:30:58.799Z,16.80
2018-04-19T06:33:29.052Z,16.40
2018-04-19T06:35:58.556Z,17.53
2018-04-19T06:38:27.562Z,16.10
2018-04-19T06:40:56.556Z,17.43
2018-04-19T06:43:26.607Z,16.77
2018-04-19T06:45:55.917Z,18.23
2018-04-19T06:48:26.383Z,18.23
2018-04-19T06:50:55.709Z,18.60
2018-04-19T06:53:26.098Z,17.57
2018-04-19T06:55:56.158Z,19.73
2018-04-19T06:58:26.223Z,19.50
2018-04-19T07:00:54.951Z,17.93
2018-04-19T07:03:25.004Z,17.13
2018-04-19T07:05:55.452Z,17.43
2018-04-19T07:08:25.738Z,18.40
2018-04-19T07:10:54.448Z,18.33
2018-04-19T07:13:24.536Z,18.80
2018-04-19T07:18:53.088Z,18.20
2018-04-19T07:21:22.102Z,16.87
2018-04-19T07:23:51.008Z,18.77
2018-04-19T07:26:21.282Z,17.30
2018-04-19T07:28:49.998Z,17.07
2018-04-19T07:31:18.906Z,18.40
2018-04-19T07:33:48.593Z,18.07
2018-04-19T07:36:18.294Z,16.50
2018-04-19T07:38:47.219Z,17.97
2018-04-19T07:41:16.166Z,17.17
2018-04-19T07:43:45.180Z,15.70
2018-04-19T07:46:14.500Z,17.37
2018-04-19T07:48:43.448Z,17.60
2018-04-19T07:51:13.752Z,15.80
2018-04-19T07:53:43.808Z,16.83
2018-04-19T07:56:13.305Z,15.33
2018-04-19T07:58:42.640Z,14.97
2018-04-19T08:01:11.954Z,16.03
2018-04-19T08:03:42.406Z,16.87
2018-04-19T08:06:11.332Z,15.57
2018-04-19T08:08:41.756Z,16.33
2018-04-19T08:11:11.466Z,15.03
2018-04-19T08:13:41.130Z,15.00
2018-04-19T08:16:11.564Z,13.90
2018-04-19T08:18:41.216Z,16.40
2018-04-19T08:21:11.281Z,14.00
2018-04-19T08:23:41.337Z,14.43
2018-04-19T08:26:11.420Z,13.63
2018-04-19T08:28:41.866Z,14.30
2018-04-19T08:33:46.382Z,14.40
2018-04-19T08:36:15.718Z,14.80
2018-04-19T08:38:45.404Z,14.53
2018-04-19T08:41:14.744Z,13.53
2018-04-19T08:43:44.445Z,13.50
2018-04-19T08:46:14.740Z,13.57
2018-04-19T08:48:43.436Z,13.90
2018-04-19T08:51:13.696Z,12.80
2018-04-19T08:53:43.765Z,15.70
2018-04-19T08:56:13.241Z,14.00
2018-04-19T08:58:42.951Z,12.43
2018-04-19T09:01:11.896Z,13.90
2018-04-19T09:03:40.819Z,12.53
2018-04-19T09:06:09.732Z,12.83
2018-04-19T09:08:38.670Z,12.50
2018-04-19T09:11:08.823Z,12.73
2018-04-19T09:13:38.511Z,12.50
2018-04-19T09:16:07.447Z,12.33
2018-04-19T09:18:36.772Z,13.30
2018-04-19T09:21:06.823Z,11.97
2018-04-19T09:23:37.108Z,11.90
2018-04-19T09:26:06.944Z,12.27
2018-04-19T09:28:35.884Z,12.23
2018-04-19T09:31:04.813Z,11.57
2018-04-19T09:33:34.499Z,11.50
2018-04-19T09:36:04.572Z,12.90
2018-04-19T09:38:33.888Z,13.93
2018-04-19T09:41:02.872Z,13.17
2018-04-19T09:43:32.514Z,11.37
2018-04-19T09:46:01.425Z,12.07
2018-04-19T09:48:31.121Z,11.10
2018-04-19T09:51:00.808Z,11.20
2018-04-19T09:53:29.736Z,11.87
2018-04-19T09:55:59.423Z,12.83
2018-04-19T09:58:29.167Z,12.13
2018-04-19T10:01:03.759Z,11.90
2018-04-19T10:03:39.185Z,12.50
2018-04-19T10:06:08.104Z,11.73
2018-04-19T10:08:37.029Z,12.67
2018-04-19T10:11:05.973Z,12.93
2018-04-19T10:13:37.131Z,11.53
2018-04-19T10:16:06.139Z,13.47
2018-04-19T10:18:35.392Z,11.53
2018-04-19T10:21:04.350Z,11.27
2018-04-19T10:23:34.638Z,11.57
2018-04-19T10:26:04.492Z,11.43
2018-04-19T10:28:33.440Z,12.00
2018-04-19T10:31:02.829Z,13.00
2018-04-19T10:33:33.103Z,12.70
2018-04-19T10:36:03.318Z,12.03
2018-04-19T10:38:33.030Z,12.13
2018-04-19T10:41:01.945Z,12.10
2018-04-19T10:43:32.220Z,12.40
2018-04-19T10:46:00.922Z,11.47
2018-04-19T10:48:29.864Z,11.70
2018-04-19T10:50:58.791Z,10.70
2018-04-19T10:53:28.490Z,11.67
2018-04-19T10:55:57.414Z,12.77
2018-04-19T10:58:27.693Z,9.80
2018-04-19T11:00:57.194Z,9.93
2018-04-19T11:03:26.872Z,11.00
2018-04-19T11:05:55.796Z,11.10
2018-04-19T11:08:24.716Z,10.23
2018-04-19T11:10:53.637Z,10.43
2018-04-19T11:13:24.061Z,11.53
2018-04-19T11:15:54.138Z,10.70
2018-04-19T11:18:22.837Z,11.60
2018-04-19T11:20:51.877Z,12.90
2018-04-19T11:23:22.339Z,10.10
2018-04-19T11:25:52.613Z,11.17
2018-04-19T11:28:22.826Z,10.80
2018-04-19T11:30:51.780Z,10.40
2018-04-19T11:33:22.202Z,10.50
2018-04-19T11:35:52.478Z,10.13
2018-04-19T11:38:21.576Z,11.23
2018-04-19T11:40:51.288Z,9.10
2018-04-19T11:43:21.556Z,8.73
2018-04-19T11:45:50.294Z,9.53
2018-04-19T11:48:19.230Z,8.87
2018-04-19T11:50:49.620Z,10.10
2018-04-19T11:53:19.920Z,9.47
2018-04-19T11:55:49.005Z,9.97
2018-04-19T11:58:17.920Z,7.97
2018-04-19T12:00:47.595Z,8.50
2018-04-19T12:03:18.096Z,8.83
2018-04-19T12:05:49.003Z,9.00
2018-04-19T12:08:17.928Z,9.77
2018-04-19T12:10:47.644Z,9.83
2018-04-19T12:13:17.316Z,9.50
2018-04-19T12:15:46.223Z,10.37
2018-04-19T12:18:15.153Z,9.97
2018-04-19T12:20:44.153Z,11.20
2018-04-19T12:23:13.468Z,11.13
2018-04-19T12:25:44.702Z,8.30
2018-04-19T12:28:13.408Z,8.67
2018-04-19T12:30:42.321Z,7.57
2018-04-19T12:33:12.035Z,8.03
2018-04-19T12:35:40.951Z,9.10
2018-04-19T12:38:10.637Z,7.43
2018-04-19T12:40:40.735Z,7.00
2018-04-19T12:43:10.461Z,7.07
2018-04-19T12:45:40.887Z,7.97
2018-04-19T12:48:10.455Z,7.47
2018-04-19T12:50:39.369Z,6.40
2018-04-19T12:53:08.282Z,6.60
2018-04-19T12:55:37.189Z,5.40
2018-04-19T12:58:06.104Z,5.10
2018-04-19T13:00:35.424Z,5.30
2018-04-19T13:03:05.689Z,6.87
2018-04-19T13:05:34.386Z,7.10
2018-04-19T13:08:03.305Z,6.07
2018-04-19T13:10:33.588Z,6.63
2018-04-19T13:13:03.408Z,6.07
2018-04-19T13:15:32.332Z,6.10
2018-04-19T13:18:02.004Z,7.80
2018-04-19T13:20:32.432Z,7.47
2018-04-19T13:23:01.457Z,6.77
2018-04-19T13:25:30.342Z,6.17
2018-04-19T13:28:00.022Z,6.57
2018-04-19T13:30:30.299Z,5.70
2018-04-19T13:33:00.491Z,5.77
2018-04-19T13:35:29.488Z,6.30
2018-04-19T13:37:59.160Z,5.80
2018-04-19T13:40:28.505Z,6.77
2018-04-19T13:42:58.144Z,6.50
2018-04-19T13:45:27.451Z,6.90
2018-04-19T13:47:56.400Z,7.17
2018-04-19T13:50:25.707Z,7.67
2018-04-19T13:52:55.395Z,7.57
2018-04-19T13:55:24.697Z,6.20
2018-04-19T13:57:54.745Z,7.10
2018-04-19T14:00:24.421Z,6.60
2018-04-19T14:02:54.457Z,8.53
2018-04-19T14:05:23.374Z,7.83
2018-04-19T14:07:53.060Z,6.60
2018-04-19T14:10:23.471Z,8.17
2018-04-19T14:12:52.416Z,7.90
2018-04-19T14:15:23.253Z,7.20
2018-04-19T14:17:52.947Z,7.00
2018-04-19T14:20:21.878Z,7.30
2018-04-19T14:22:51.934Z,6.70
2018-04-19T14:25:20.898Z,9.37
2018-04-19T14:27:50.563Z,8.70
2018-04-19T14:30:20.618Z,7.53
2018-04-19T14:32:50.913Z,6.87
2018-04-19T14:35:20.957Z,7.80
2018-04-19T14:37:49.638Z,8.83
2018-04-19T14:40:18.551Z,7.60
2018-04-19T14:42:47.523Z,7.70
2018-04-19T14:45:16.451Z,7.73
2018-04-19T14:47:46.714Z,7.67
2018-04-19T14:50:15.431Z,6.60
2018-04-19T14:52:45.131Z,9.00
2018-04-19T14:55:14.054Z,7.90
2018-04-19T14:57:45.610Z,7.53
2018-04-19T15:00:15.968Z,9.07
2018-04-19T15:02:44.881Z,7.80
2018-04-19T15:05:15.292Z,10.80
2018-04-19T15:07:47.680Z,9.40
2018-04-19T15:10:16.590Z,10.33
2018-04-19T15:12:45.529Z,10.23
2018-04-19T15:15:15.318Z,9.80
2018-04-19T15:17:45.586Z,10.57
2018-04-19T15:20:15.428Z,10.20
2018-04-19T15:22:44.338Z,9.90
2018-04-19T15:25:13.670Z,11.50
2018-04-19T15:27:43.915Z,9.40
2018-04-19T15:30:13.396Z,10.10
2018-04-19T15:32:42.324Z,10.90
2018-04-19T15:35:12.592Z,9.80
2018-04-19T15:37:41.316Z,10.20
2018-04-19T15:40:11.012Z,11.03
2018-04-19T15:42:39.942Z,10.87
2018-04-19T15:45:10.077Z,10.20
2018-04-19T15:47:39.000Z,10.00
2018-04-19T15:50:08.706Z,10.30
2018-04-19T15:52:37.628Z,9.03
2018-04-19T15:55:08.528Z,8.87
2018-04-19T15:57:38.138Z,9.90
2018-04-19T16:00:07.569Z,9.70
2018-04-19T16:02:37.711Z,9.03
2018-04-19T16:05:06.946Z,10.60
2018-04-19T16:07:35.873Z,10.40
2018-04-19T16:10:05.563Z,10.73
2018-04-19T16:12:35.259Z,9.00
2018-04-19T16:15:04.199Z,8.70
2018-04-19T16:17:33.109Z,7.93
2018-04-19T16:20:03.373Z,7.53
2018-04-19T16:22:33.243Z,6.83
2018-04-19T16:25:03.295Z,6.47
2018-04-19T16:27:33.741Z,5.93
2018-04-19T16:30:03.454Z,6.50
2018-04-19T16:32:32.408Z,6.87
2018-04-19T16:35:01.305Z,6.40
2018-04-19T16:37:30.219Z,6.50
2018-04-19T16:40:00.274Z,6.73
2018-04-19T16:42:29.194Z,6.50
2018-04-19T16:44:58.222Z,8.00
2018-04-19T16:47:27.187Z,7.50
2018-04-19T16:49:56.051Z,7.67
2018-04-19T16:52:25.727Z,8.23
2018-04-19T16:54:55.065Z,8.47
2018-04-19T16:57:23.972Z,8.87
2018-04-19T16:59:53.310Z,10.60
2018-04-19T17:02:22.240Z,10.43
2018-04-19T17:04:51.555Z,10.63
2018-04-19T17:07:20.582Z,10.63
2018-04-19T17:09:50.832Z,11.18
2018-04-19T17:12:20.319Z,9.80
2018-04-19T17:14:50.369Z,11.10
2018-04-19T17:17:19.288Z,10.40
2018-04-19T17:19:48.229Z,10.73
2018-04-19T17:22:17.918Z,10.03
2018-04-19T17:24:46.894Z,9.90
2018-04-19T17:27:15.836Z,9.07
2018-04-19T17:29:45.563Z,9.97
2018-04-19T17:32:14.868Z,9.70
2018-04-19T17:34:43.804Z,9.83
2018-04-19T17:37:13.505Z,9.23
2018-04-19T17:39:43.773Z,8.60
2018-04-19T17:42:13.811Z,8.90
2018-04-19T17:44:42.632Z,9.30
2018-04-19T17:47:12.925Z,9.33
2018-04-19T17:49:41.639Z,7.80
2018-04-19T17:52:11.682Z,7.90
2018-04-19T17:54:40.590Z,8.77
2018-04-19T17:57:10.660Z,8.27
2018-04-19T17:59:40.447Z,8.37
2018-04-19T18:02:10.138Z,8.57
2018-04-19T18:04:40.421Z,7.73
2018-04-19T18:07:10.469Z,7.93
2018-04-19T18:09:39.176Z,7.53
2018-04-19T18:12:08.114Z,9.00
2018-04-19T18:14:37.085Z,7.13
2018-04-19T18:17:05.992Z,7.60
2018-04-19T18:19:34.936Z,7.27
2018-04-19T18:22:03.854Z,7.30
2018-04-19T18:24:33.232Z,7.57
2018-04-19T18:27:03.686Z,7.00
2018-04-19T18:29:33.386Z,7.30
2018-04-19T18:32:03.420Z,6.50
2018-04-19T18:34:33.112Z,6.50
2018-04-19T18:37:03.382Z,6.20
2018-04-19T18:39:32.098Z,6.10
2018-04-19T18:42:01.047Z,5.90
2018-04-19T18:44:29.972Z,7.10
2018-04-19T18:47:00.263Z,6.10
2018-04-19T18:49:29.740Z,6.83
2018-04-19T18:51:59.418Z,6.07
2018-04-19T18:54:28.352Z,5.93
2018-04-19T18:56:57.284Z,5.97
2018-04-19T18:59:26.198Z,6.10
2018-04-19T19:01:55.110Z,6.43
2018-04-19T19:04:24.446Z,6.90
2018-04-19T19:06:53.361Z,5.90
2018-04-19T19:09:22.668Z,6.67
2018-04-19T19:11:52.342Z,6.17
2018-04-19T19:14:22.613Z,6.33
2018-04-19T19:16:51.812Z,5.20
2018-04-19T19:19:32.590Z,5.77
2018-04-19T19:22:02.402Z,5.70
2018-04-19T19:24:32.076Z,6.20
2018-04-19T19:27:02.402Z,5.40
2018-04-19T19:29:31.107Z,4.77
2018-04-19T19:32:01.533Z,6.10
2018-04-19T19:34:31.241Z,5.27
2018-04-19T19:37:01.535Z,5.63
2018-04-19T19:39:30.216Z,4.53
2018-04-19T19:41:59.573Z,5.17
2018-04-19T19:44:28.530Z,5.83
2018-04-19T19:46:57.484Z,5.10
2018-04-19T19:49:26.417Z,5.30
2018-04-19T19:51:55.390Z,5.30
2018-04-19T19:54:25.466Z,4.80
2018-04-19T19:56:55.770Z,4.63
2018-04-19T19:59:25.360Z,5.00
2018-04-19T20:01:55.785Z,5.10
2018-04-19T20:04:25.904Z,5.07
2018-04-19T20:06:55.580Z,5.20
2018-04-19T20:09:25.680Z,4.70
2018-04-19T20:11:54.604Z,5.20
2018-04-19T20:14:23.548Z,5.53
2018-04-19T20:16:52.468Z,5.70
2018-04-19T20:19:21.407Z,6.17
2018-04-19T20:21:51.685Z,6.60
2018-04-19T20:24:20.382Z,6.40
2018-04-19T20:26:49.316Z,6.47
2018-04-19T20:29:18.231Z,6.97
2018-04-19T20:31:47.176Z,6.87
2018-04-19T20:34:16.888Z,7.67
2018-04-19T20:36:45.813Z,7.03
2018-04-19T20:39:14.754Z,8.00
2018-04-19T20:41:44.452Z,7.80
2018-04-19T20:44:13.404Z,7.07
2018-04-19T20:46:42.447Z,8.17
2018-04-19T20:49:12.118Z,7.17
2018-04-19T20:51:41.062Z,7.40
2018-04-19T20:54:10.364Z,7.67
2018-04-19T20:56:40.663Z,9.07
2018-04-19T20:59:10.509Z,8.63
2018-04-19T21:01:40.801Z,8.80
2018-04-19T21:04:09.493Z,8.90
2018-04-19T21:06:39.765Z,9.97
2018-04-19T21:09:09.839Z,10.27
2018-04-19T21:11:39.302Z,9.17
2018-04-19T21:14:08.389Z,10.07
2018-04-19T21:16:37.302Z,9.27
2018-04-19T21:19:06.228Z,8.57
2018-04-19T21:21:35.165Z,9.30
2018-04-19T21:24:04.834Z,9.30
2018-04-19T21:26:34.558Z,10.00
2018-04-19T21:29:03.478Z,9.00
2018-04-19T21:31:32.403Z,10.57
2018-04-19T21:34:01.333Z,10.40
2018-04-19T21:36:31.783Z,10.17
2018-04-19T21:39:01.491Z,9.37
2018-04-19T21:41:30.402Z,11.17
2018-04-19T21:44:00.470Z,11.30
2018-04-19T21:46:29.380Z,10.43
2018-04-19T21:48:59.095Z,11.20
2018-04-19T21:51:28.018Z,11.63
2018-04-19T21:53:57.718Z,10.83
2018-04-19T21:56:27.430Z,11.93
2018-04-19T21:58:56.391Z,11.67
2018-04-19T22:01:25.276Z,11.13
2018-04-19T22:03:54.976Z,11.30
2018-04-19T22:06:25.446Z,11.57
2018-04-19T22:08:55.713Z,11.80
2018-04-19T22:11:24.426Z,11.90
2018-04-19T22:13:54.503Z,11.30
2018-04-19T22:16:23.412Z,11.83
2018-04-19T22:18:52.369Z,11.63
2018-04-19T22:21:22.070Z,12.03
2018-04-19T22:23:51.014Z,11.57
2018-04-19T22:26:21.440Z,12.57
2018-04-19T22:28:50.467Z,11.17
2018-04-19T22:31:19.405Z,11.57
2018-04-19T22:33:49.459Z,11.63
2018-04-19T22:36:18.366Z,12.13
2018-04-19T22:38:48.458Z,12.40
2018-04-19T22:41:17.401Z,11.27
2018-04-19T22:43:47.100Z,11.60
2018-04-19T22:46:16.044Z,12.40
2018-04-19T22:48:44.966Z,11.13
2018-04-19T22:51:14.638Z,12.20
2018-04-19T22:53:43.605Z,13.13
2018-04-19T22:56:13.272Z,12.37
2018-04-19T22:58:43.566Z,12.90
2018-04-19T23:01:12.268Z,12.43
2018-04-19T23:03:41.626Z,12.07
2018-04-19T23:06:10.549Z,12.93
2018-04-19T23:08:40.986Z,12.20
2018-04-19T23:11:10.701Z,12.20
2018-04-19T23:13:40.628Z,12.20
2018-04-19T23:16:10.896Z,13.13
2018-04-19T23:18:39.623Z,12.70
2018-04-19T23:21:08.543Z,12.77
2018-04-19T23:23:38.228Z,13.13
2018-04-19T23:26:07.160Z,13.77
2018-04-19T23:28:36.082Z,12.20
2018-04-19T23:31:05.016Z,13.70
2018-04-19T23:33:34.326Z,14.37
2018-04-19T23:36:04.410Z,13.73
2018-04-19T23:38:34.102Z,14.80
2018-04-19T23:41:03.029Z,15.20
2018-04-19T23:43:32.349Z,14.03
2018-04-19T23:46:01.292Z,13.67
2018-04-19T23:48:30.956Z,13.83
2018-04-19T23:50:59.876Z,14.40
2018-04-19T23:53:29.579Z,14.20
2018-04-19T23:55:58.890Z,13.10
2018-04-19T23:58:29.188Z,14.27
